createdAt,value
2018-11-03T00:02:25.157Z,11.03
2018-11-03T00:04:53.028Z,12.63
2018-11-03T00:07:20.998Z,12.70
2018-11-03T00:09:48.942Z,12.37
2018-11-03T00:12:19.063Z,13.30
2018-11-03T00:14:47.774Z,13.70
2018-11-03T00:17:15.836Z,13.57
2018-11-03T00:19:43.732Z,15.10
2018-11-03T00:22:11.678Z,13.50
2018-11-03T00:24:39.663Z,14.27
2018-11-03T00:27:07.572Z,13.90
2018-11-03T00:29:35.419Z,13.47
2018-11-03T00:32:03.325Z,15.57
2018-11-03T00:34:32.190Z,16.67
2018-11-03T00:37:00.062Z,16.90
2018-11-03T00:39:28.042Z,14.03
2018-11-03T00:41:55.962Z,16.20
2018-11-03T00:44:23.856Z,15.17
2018-11-03T00:46:51.656Z,13.00
2018-11-03T00:49:19.947Z,12.87
2018-11-03T00:51:47.858Z,10.73
2018-11-03T00:54:15.774Z,11.50
2018-11-03T00:56:43.726Z,12.50
2018-11-03T00:59:11.616Z,10.67
2018-11-03T01:01:39.530Z,12.33
2018-11-03T01:04:07.541Z,10.67
2018-11-03T01:06:35.383Z,13.87
2018-11-03T01:09:04.457Z,12.13
2018-11-03T01:11:33.174Z,11.00
2018-11-03T01:14:01.074Z,12.77
2018-11-03T01:16:28.979Z,10.83
2018-11-03T01:18:57.031Z,13.60
2018-11-03T01:21:24.906Z,12.30
2018-11-03T01:23:53.923Z,13.30
2018-11-03T01:26:21.715Z,11.07
2018-11-03T01:28:50.003Z,10.90
2018-11-03T01:31:17.909Z,13.43
2018-11-03T01:33:46.410Z,12.67
2018-11-03T01:36:15.092Z,10.60
2018-11-03T01:38:43.006Z,10.97
2018-11-03T01:41:11.204Z,9.87
2018-11-03T01:43:39.148Z,8.70
2018-11-03T01:46:07.038Z,10.67
2018-11-03T01:48:34.993Z,8.77
2018-11-03T01:51:02.944Z,8.53
2018-11-03T01:53:30.822Z,10.50
2018-11-03T01:55:59.620Z,10.13
2018-11-03T01:58:27.494Z,8.77
2018-11-03T02:00:55.386Z,13.20
2018-11-03T02:03:23.334Z,8.40
2018-11-03T02:05:51.312Z,9.17
2018-11-03T02:08:19.210Z,10.33
2018-11-03T02:10:47.154Z,8.47
2018-11-03T02:13:15.585Z,9.43
2018-11-03T02:15:43.514Z,8.93
2018-11-03T02:18:11.426Z,11.17
2018-11-03T02:20:39.366Z,11.27
2018-11-03T02:23:07.454Z,8.03
2018-11-03T02:25:38.894Z,11.40
2018-11-03T02:28:09.120Z,11.60
2018-11-03T02:30:37.076Z,10.40
2018-11-03T02:33:05.044Z,7.73
2018-11-03T02:35:32.952Z,8.63
2018-11-03T02:38:00.961Z,9.50
2018-11-03T02:40:28.926Z,10.80
2018-11-03T02:42:56.848Z,11.07
2018-11-03T02:45:25.094Z,9.20
2018-11-03T02:47:53.008Z,10.77
2018-11-03T02:50:20.954Z,8.23
2018-11-03T02:52:48.890Z,10.30
2018-11-03T02:55:18.342Z,12.77
2018-11-03T02:57:46.728Z,10.67
2018-11-03T03:00:15.938Z,9.53
2018-11-03T03:02:43.993Z,10.70
2018-11-03T03:05:12.555Z,9.57
2018-11-03T03:07:40.743Z,10.60
2018-11-03T03:10:10.461Z,9.67
2018-11-03T03:12:38.514Z,10.87
2018-11-03T03:15:11.997Z,10.53
2018-11-03T03:17:40.145Z,9.07
2018-11-03T03:20:09.801Z,9.43
2018-11-03T03:22:37.699Z,8.80
2018-11-03T03:25:06.274Z,9.57
2018-11-03T03:27:34.539Z,9.37
2018-11-03T03:30:03.198Z,9.50
2018-11-03T03:32:31.131Z,8.13
2018-11-03T03:34:59.085Z,8.83
2018-11-03T03:37:27.127Z,10.57
2018-11-03T03:39:55.516Z,9.77
2018-11-03T03:42:23.580Z,9.73
2018-11-03T03:44:54.671Z,10.37
2018-11-03T03:47:22.662Z,10.53
2018-11-03T03:49:50.639Z,10.83
2018-11-03T03:52:18.535Z,9.10
2018-11-03T03:54:49.925Z,9.23
2018-11-03T03:57:17.847Z,8.57
2018-11-03T03:59:45.831Z,8.37
2018-11-03T04:02:13.741Z,8.33
2018-11-03T04:04:48.177Z,9.50
2018-11-03T04:07:16.105Z,10.50
2018-11-03T04:09:44.031Z,10.47
2018-11-03T04:12:11.990Z,8.83
2018-11-03T04:14:40.520Z,9.50
2018-11-03T04:17:08.409Z,9.87
2018-11-03T04:19:37.098Z,9.10
2018-11-03T04:22:05.050Z,10.50
2018-11-03T04:24:33.020Z,8.13
2018-11-03T04:27:00.989Z,9.97
2018-11-03T04:29:28.888Z,9.40
2018-11-03T04:31:57.028Z,9.50
2018-11-03T04:34:25.005Z,10.00
2018-11-03T04:36:52.894Z,11.20
2018-11-03T04:39:21.437Z,10.93
2018-11-03T04:41:49.365Z,8.63
2018-11-03T04:44:17.372Z,10.67
2018-11-03T04:46:45.420Z,9.03
2018-11-03T04:49:13.353Z,10.70
2018-11-03T04:51:41.333Z,11.27
2018-11-03T04:54:09.884Z,8.80
2018-11-03T04:56:37.792Z,10.50
2018-11-03T04:59:05.741Z,9.63
2018-11-03T05:01:33.606Z,13.87
2018-11-03T05:04:01.480Z,9.73
2018-11-03T05:06:29.341Z,9.10
2018-11-03T05:08:57.265Z,10.07
2018-11-03T05:11:25.285Z,9.23
2018-11-03T05:13:55.170Z,10.77
2018-11-03T05:16:23.397Z,8.93
2018-11-03T05:18:51.307Z,10.37
2018-11-03T05:21:21.391Z,9.23
2018-11-03T05:23:50.437Z,8.43
2018-11-03T05:26:18.301Z,9.40
2018-11-03T05:28:46.131Z,10.77
2018-11-03T05:31:14.081Z,10.50
2018-11-03T05:33:43.258Z,8.83
2018-11-03T05:36:11.154Z,9.13
2018-11-03T05:38:39.111Z,11.93
2018-11-03T05:41:07.879Z,10.07
2018-11-03T05:43:39.114Z,10.93
2018-11-03T05:46:07.032Z,11.70
2018-11-03T05:48:34.927Z,9.17
2018-11-03T05:51:02.842Z,8.40
2018-11-03T05:53:30.773Z,9.20
2018-11-03T05:55:59.696Z,9.00
2018-11-03T05:58:28.262Z,9.57
2018-11-03T06:00:56.642Z,9.20
2018-11-03T06:03:28.319Z,9.20
2018-11-03T06:05:56.275Z,8.73
2018-11-03T06:08:24.129Z,9.67
2018-11-03T06:10:53.832Z,8.07
2018-11-03T06:13:22.650Z,10.37
2018-11-03T06:15:53.116Z,10.23
2018-11-03T06:18:21.893Z,8.13
2018-11-03T06:20:49.908Z,8.63
2018-11-03T06:23:17.877Z,10.17
2018-11-03T06:25:45.906Z,11.27
2018-11-03T06:28:14.023Z,12.23
2018-11-03T06:30:42.059Z,11.03
2018-11-03T06:33:12.937Z,11.77
2018-11-03T06:35:41.113Z,11.97
2018-11-03T06:38:12.673Z,13.30
2018-11-03T06:40:41.973Z,12.57
2018-11-03T06:43:29.023Z,10.43
2018-11-03T06:46:00.317Z,13.10
2018-11-03T06:48:33.673Z,15.07
2018-11-03T06:51:02.619Z,11.73
2018-11-03T06:53:30.804Z,11.33
2018-11-03T06:56:04.704Z,11.60
2018-11-03T06:58:37.157Z,13.47
2018-11-03T07:01:06.765Z,12.93
2018-11-03T07:03:38.825Z,14.10
2018-11-03T07:06:15.685Z,12.93
2018-11-03T07:08:48.784Z,13.13
2018-11-03T07:11:18.325Z,10.03
2018-11-03T07:13:48.086Z,13.03
2018-11-03T07:16:35.445Z,12.83
2018-11-03T07:19:03.816Z,11.73
2018-11-03T07:21:33.453Z,13.07
2018-11-03T07:24:16.944Z,14.37
2018-11-03T07:31:53.039Z,12.80
2018-11-03T07:34:24.412Z,14.37
2018-11-03T07:36:57.377Z,13.43
2018-11-03T07:39:31.674Z,15.50
2018-11-03T07:42:07.996Z,21.07
2018-11-03T07:44:40.843Z,15.70
2018-11-03T07:47:28.342Z,14.43
2018-11-03T07:50:09.768Z,15.03
2018-11-03T07:52:53.996Z,21.47
2018-11-03T07:55:42.551Z,18.57
2018-11-03T07:58:10.662Z,18.87
2018-11-03T08:00:39.269Z,17.47
2018-11-03T08:03:07.571Z,17.93
2018-11-03T08:05:43.611Z,19.20
2018-11-03T08:08:14.170Z,19.43
2018-11-03T08:14:07.638Z,24.17
2018-11-03T08:16:35.677Z,22.43
2018-11-03T08:19:03.779Z,23.20
2018-11-03T08:21:35.662Z,19.73
2018-11-03T08:24:12.045Z,25.07
2018-11-03T08:26:40.137Z,19.57
2018-11-03T08:29:08.276Z,19.33
2018-11-03T08:31:36.347Z,23.33
2018-11-03T08:34:10.868Z,21.77
2018-11-03T08:36:38.994Z,24.87
2018-11-03T08:39:08.217Z,24.50
2018-11-03T08:41:36.759Z,26.30
2018-11-03T08:44:08.973Z,28.73
2018-11-03T08:46:37.192Z,29.60
2018-11-03T08:49:05.713Z,28.00
2018-11-03T08:51:33.916Z,25.27
2018-11-03T08:54:03.742Z,27.37
2018-11-03T08:56:31.817Z,25.77
2018-11-03T08:59:00.055Z,23.20
2018-11-03T09:01:28.050Z,28.97
2018-11-03T09:03:58.219Z,26.23
2018-11-03T09:06:28.210Z,28.37
2018-11-03T09:08:56.585Z,28.93
2018-11-03T09:11:32.392Z,26.13
2018-11-03T09:14:00.408Z,27.83
2018-11-03T09:16:29.544Z,25.07
2018-11-03T09:18:57.612Z,25.30
2018-11-03T09:21:53.161Z,28.67
2018-11-03T09:24:21.068Z,21.90
2018-11-03T09:26:49.288Z,24.30
2018-11-03T09:29:18.215Z,26.90
2018-11-03T09:31:46.684Z,28.50
2018-11-03T09:34:14.923Z,22.93
2018-11-03T09:36:42.945Z,21.70
2018-11-03T09:39:11.244Z,23.47
2018-11-03T09:41:39.462Z,22.07
2018-11-03T09:44:07.574Z,25.47
2018-11-03T09:46:35.868Z,23.37
2018-11-03T09:49:04.170Z,18.87
2018-11-03T09:51:32.844Z,19.63
2018-11-03T09:54:01.885Z,20.30
2018-11-03T09:56:30.071Z,22.57
2018-11-03T09:58:58.029Z,19.57
2018-11-03T10:01:25.994Z,20.57
2018-11-03T10:03:57.998Z,21.10
2018-11-03T10:06:26.655Z,21.17
2018-11-03T10:08:54.845Z,21.77
2018-11-03T10:11:22.861Z,20.10
2018-11-03T10:13:52.430Z,22.00
2018-11-03T10:16:22.645Z,18.83
2018-11-03T10:18:51.421Z,17.87
2018-11-03T10:21:19.582Z,19.67
2018-11-03T10:23:51.624Z,18.07
2018-11-03T10:26:19.576Z,19.80
2018-11-03T10:28:48.083Z,17.93
2018-11-03T10:31:16.113Z,16.70
2018-11-03T10:33:47.667Z,17.40
2018-11-03T10:36:15.639Z,18.03
2018-11-03T10:38:44.695Z,16.97
2018-11-03T10:41:13.306Z,13.73
2018-11-03T10:46:42.915Z,14.97
2018-11-03T10:49:19.809Z,17.43
2018-11-03T10:51:53.491Z,12.87
2018-11-03T10:54:25.955Z,12.60
2018-11-03T10:56:54.189Z,12.10
2018-11-03T10:59:23.079Z,13.27
2018-11-03T11:01:56.590Z,11.93
2018-11-03T11:04:33.848Z,9.20
2018-11-03T11:07:07.330Z,9.70
2018-11-03T11:09:40.838Z,10.67
2018-11-03T11:12:16.192Z,9.97
2018-11-03T11:17:48.373Z,9.13
2018-11-03T11:20:16.350Z,10.37
2018-11-03T11:22:46.405Z,13.40
2018-11-03T11:25:33.997Z,10.17
2018-11-03T11:28:02.153Z,8.77
2018-11-03T11:30:37.319Z,7.40
2018-11-03T11:33:07.481Z,7.73
2018-11-03T11:35:49.220Z,8.13
2018-11-03T11:38:17.421Z,5.07
2018-11-03T11:40:45.487Z,8.83
2018-11-03T11:43:14.439Z,6.23
2018-11-03T11:45:47.147Z,6.33
2018-11-03T11:48:15.214Z,7.27
2018-11-03T11:50:43.726Z,4.37
2018-11-03T11:53:12.106Z,6.63
2018-11-03T11:55:57.934Z,9.27
2018-11-03T11:58:26.082Z,6.33
2018-11-03T12:10:03.954Z,7.80
2018-11-03T12:12:31.830Z,4.77
2018-11-03T12:15:13.646Z,5.73
2018-11-03T12:17:41.752Z,7.90
2018-11-03T12:20:10.082Z,7.30
2018-11-03T12:22:38.947Z,4.20
2018-11-03T12:25:21.180Z,6.90
2018-11-03T12:27:49.240Z,6.43
2018-11-03T12:30:17.287Z,5.60
2018-11-03T12:32:45.357Z,4.70
2018-11-03T12:35:34.151Z,5.07
2018-11-03T12:38:03.307Z,8.40
2018-11-03T12:40:31.371Z,6.73
2018-11-03T12:43:00.200Z,6.33
2018-11-03T12:45:34.845Z,4.33
2018-11-03T12:48:03.894Z,5.00
2018-11-03T12:50:32.658Z,6.17
2018-11-03T12:53:10.438Z,4.90
2018-11-03T12:59:00.414Z,5.37
2018-11-03T13:01:28.507Z,5.60
2018-11-03T13:06:59.797Z,7.43
2018-11-03T13:09:28.908Z,6.10
2018-11-03T13:11:57.408Z,6.53
2018-11-03T13:14:25.844Z,10.03
2018-11-03T13:16:54.886Z,5.43
2018-11-03T13:19:22.994Z,6.93
2018-11-03T13:21:51.051Z,6.63
2018-11-03T13:24:42.523Z,13.97
2018-11-03T13:27:10.639Z,6.30
2018-11-03T13:29:40.868Z,6.47
2018-11-03T13:32:09.825Z,8.57
2018-11-03T13:34:44.607Z,6.47
2018-11-03T13:37:12.728Z,6.53
2018-11-03T13:39:41.437Z,6.83
2018-11-03T13:42:09.429Z,7.00
2018-11-03T13:44:38.151Z,7.37
2018-11-03T13:47:06.566Z,9.73
2018-11-03T13:49:35.479Z,8.47
2018-11-03T13:52:03.540Z,7.07
2018-11-03T13:54:36.940Z,5.90
2018-11-03T13:57:05.362Z,7.23
2018-11-03T13:59:33.528Z,5.37
2018-11-03T14:02:01.616Z,6.47
2018-11-03T14:04:33.128Z,4.87
2018-11-03T14:07:01.341Z,5.53
2018-11-03T14:09:29.388Z,6.43
2018-11-03T14:11:57.500Z,6.63
2018-11-03T14:14:30.249Z,4.73
2018-11-03T14:16:58.344Z,7.27
2018-11-03T14:19:26.617Z,7.30
2018-11-03T14:21:54.848Z,4.67
2018-11-03T14:24:22.916Z,7.83
2018-11-03T14:26:51.080Z,4.63
2018-11-03T14:29:19.107Z,5.33
2018-11-03T14:31:47.434Z,5.47
2018-11-03T14:34:36.106Z,6.03
2018-11-03T14:37:04.718Z,6.07
2018-11-03T14:39:32.777Z,6.23
2018-11-03T14:42:00.971Z,4.97
2018-11-03T14:44:48.403Z,5.33
2018-11-03T14:47:16.497Z,5.63
2018-11-03T14:49:44.575Z,5.70
2018-11-03T14:52:12.630Z,5.30
2018-11-03T14:54:40.735Z,5.10
2018-11-03T14:57:08.812Z,5.67
2018-11-03T14:59:37.323Z,6.00
2018-11-03T15:02:05.610Z,7.33
2018-11-03T15:04:36.210Z,4.63
2018-11-03T15:07:06.704Z,7.70
2018-11-03T15:09:34.859Z,4.43
2018-11-03T15:12:02.963Z,4.37
2018-11-03T15:14:36.549Z,4.10
2018-11-03T15:17:04.701Z,4.90
2018-11-03T15:19:32.721Z,3.67
2018-11-03T15:22:01.395Z,3.33
2018-11-03T15:24:30.437Z,4.87
2018-11-03T15:26:58.768Z,7.43
2018-11-03T15:29:27.845Z,5.27
2018-11-03T15:31:55.883Z,4.53
2018-11-03T15:34:30.874Z,5.73
2018-11-03T15:36:59.023Z,4.83
2018-11-03T15:39:27.169Z,4.13
2018-11-03T15:41:57.853Z,5.73
2018-11-03T15:44:26.076Z,8.90
2018-11-03T15:47:03.465Z,4.03
2018-11-03T15:49:31.522Z,4.63
2018-11-03T15:51:59.939Z,5.80
2018-11-03T15:54:35.045Z,5.23
2018-11-03T15:57:03.245Z,5.40
2018-11-03T15:59:31.960Z,8.70
2018-11-03T16:02:00.075Z,6.03
2018-11-03T16:04:28.187Z,6.73
2018-11-03T16:06:56.275Z,11.63
2018-11-03T16:09:34.296Z,12.83
2018-11-03T16:12:02.515Z,11.23
2018-11-03T16:14:31.743Z,13.03
2018-11-03T16:17:06.652Z,11.23
2018-11-03T16:19:34.979Z,10.93
2018-11-03T16:22:03.631Z,16.43
2018-11-03T16:24:31.639Z,11.80
2018-11-03T16:26:59.783Z,11.30
2018-11-03T16:29:27.806Z,9.97
2018-11-03T16:31:55.898Z,9.37
2018-11-03T16:34:31.824Z,7.60
2018-11-03T16:37:03.289Z,6.00
2018-11-03T16:39:32.188Z,5.53
2018-11-03T16:42:00.359Z,7.80
2018-11-03T16:44:35.283Z,9.97
2018-11-03T16:47:04.239Z,7.50
2018-11-03T16:49:33.976Z,10.63
2018-11-03T16:52:02.921Z,9.23
2018-11-03T16:54:41.525Z,10.50
2018-11-03T16:57:09.960Z,10.20
2018-11-03T16:59:39.674Z,10.73
2018-11-03T17:02:43.840Z,12.17
2018-11-03T17:05:13.127Z,13.10
2018-11-03T17:07:41.660Z,11.93
2018-11-03T17:10:12.590Z,12.80
2018-11-03T17:12:42.109Z,10.73
2018-11-03T17:15:16.844Z,11.03
2018-11-03T17:17:45.730Z,12.33
2018-11-03T17:20:13.881Z,8.83
2018-11-03T17:22:42.007Z,7.63
2018-11-03T17:25:14.884Z,7.93
2018-11-03T17:27:42.983Z,7.70
2018-11-03T17:30:13.665Z,10.10
2018-11-03T17:32:42.025Z,11.50
2018-11-03T17:35:14.706Z,9.23
2018-11-03T17:37:45.733Z,9.57
2018-11-03T17:40:13.830Z,8.10
2018-11-03T17:42:41.955Z,9.20
2018-11-03T17:45:14.671Z,9.33
2018-11-03T17:47:42.826Z,11.77
2018-11-03T17:50:12.308Z,9.83
2018-11-03T17:52:40.940Z,12.17
2018-11-03T17:55:10.648Z,10.43
2018-11-03T17:57:39.090Z,8.90
2018-11-03T18:00:12.280Z,10.63
2018-11-03T18:02:42.644Z,12.30
2018-11-03T18:05:13.115Z,11.97
2018-11-03T18:07:41.185Z,13.83
2018-11-03T18:10:22.088Z,13.90
2018-11-03T18:13:00.632Z,17.33
2018-11-03T18:15:29.791Z,19.30
2018-11-03T18:17:58.344Z,17.60
2018-11-03T18:20:26.305Z,26.67
2018-11-03T18:22:54.964Z,28.07
2018-11-03T18:25:24.784Z,27.10
2018-11-03T18:27:52.822Z,27.00
2018-11-03T18:30:23.307Z,24.57
2018-11-03T18:32:51.387Z,24.83
2018-11-03T18:35:19.519Z,24.30
2018-11-03T18:37:56.385Z,20.33
2018-11-03T18:40:24.413Z,19.13
2018-11-03T18:43:02.171Z,18.03
2018-11-03T18:45:31.985Z,20.90
2018-11-03T18:48:00.000Z,19.53
2018-11-03T18:50:28.078Z,18.40
2018-11-03T18:52:56.182Z,19.83
2018-11-03T18:55:27.445Z,20.50
2018-11-03T18:57:55.644Z,20.10
2018-11-03T19:00:23.659Z,19.87
2018-11-03T19:02:51.859Z,17.67
2018-11-03T19:05:19.996Z,19.37
2018-11-03T19:07:47.956Z,19.47
2018-11-03T19:10:16.071Z,17.87
2018-11-03T19:16:00.874Z,17.47
2018-11-03T19:18:30.089Z,19.70
2018-11-03T19:21:00.714Z,21.87
2018-11-03T19:23:28.911Z,19.37
2018-11-03T19:25:57.037Z,18.70
2018-11-03T19:28:25.284Z,22.23
2018-11-03T19:30:55.113Z,18.17
2018-11-03T19:33:26.813Z,20.53
2018-11-03T19:35:55.245Z,19.87
2018-11-03T19:38:23.393Z,17.13
2018-11-03T19:40:51.423Z,17.90
2018-11-03T19:43:19.476Z,21.13
2018-11-03T19:45:48.556Z,21.23
2018-11-03T19:48:16.868Z,21.10
2018-11-03T19:50:45.037Z,21.27
2018-11-03T19:53:14.154Z,21.93
2018-11-03T19:58:09.398Z,21.00
2018-11-03T20:00:37.422Z,19.77
2018-11-03T20:03:05.650Z,26.53
2018-11-03T20:05:35.393Z,19.87
2018-11-03T20:08:03.832Z,19.77
2018-11-03T20:10:32.434Z,42.13
2018-11-03T20:13:00.702Z,39.77
2018-11-03T20:15:29.663Z,62.80
2018-11-03T20:17:57.728Z,34.67
2018-11-03T20:20:26.553Z,36.97
2018-11-03T20:22:54.535Z,35.57
2018-11-03T20:25:23.517Z,36.70
2018-11-03T20:27:51.438Z,28.97
2018-11-03T20:30:19.493Z,28.63
2018-11-03T20:32:47.504Z,28.83
2018-11-03T20:35:16.443Z,28.07
2018-11-03T20:37:44.414Z,25.53
2018-11-03T20:40:13.842Z,29.80
2018-11-03T20:42:41.811Z,26.33
2018-11-03T20:45:11.830Z,26.00
2018-11-03T20:47:39.770Z,26.97
2018-11-03T20:50:13.598Z,25.03
2018-11-03T20:52:41.569Z,22.40
2018-11-03T20:55:11.379Z,26.57
2018-11-03T20:57:39.622Z,27.53
2018-11-03T21:00:10.953Z,26.73
2018-11-03T21:02:40.397Z,24.97
2018-11-03T21:05:09.279Z,33.07
2018-11-03T21:07:37.409Z,29.23
2018-11-03T21:10:06.112Z,27.03
2018-11-03T21:12:34.030Z,27.43
2018-11-03T21:15:02.222Z,26.40
2018-11-03T21:17:30.253Z,29.30
2018-11-03T21:19:58.323Z,32.90
2018-11-03T21:22:26.332Z,26.13
2018-11-03T21:24:54.965Z,25.37
2018-11-03T21:27:22.974Z,25.80
2018-11-03T21:29:50.919Z,27.10
2018-11-03T21:32:18.906Z,25.00
2018-11-03T21:34:46.888Z,27.63
2018-11-03T21:37:14.865Z,23.27
2018-11-03T21:39:42.876Z,25.23
2018-11-03T21:42:10.879Z,24.70
2018-11-03T21:44:39.996Z,27.30
2018-11-03T21:47:08.082Z,25.40
2018-11-03T21:49:37.008Z,26.60
2018-11-03T21:52:05.648Z,26.37
2018-11-03T21:54:33.801Z,31.13
2018-11-03T21:57:03.748Z,25.70
2018-11-03T22:01:59.277Z,23.57
2018-11-03T22:04:28.976Z,23.53
2018-11-03T22:06:57.147Z,23.00
2018-11-03T22:09:25.788Z,23.73
2018-11-03T22:11:53.795Z,27.07
2018-11-03T22:14:21.777Z,22.60
2018-11-03T22:19:34.179Z,23.43
2018-11-03T22:22:02.128Z,26.07
2018-11-03T22:24:30.141Z,26.93
2018-11-03T22:26:58.176Z,25.80
2018-11-03T22:29:27.886Z,26.93
2018-11-03T22:31:55.816Z,25.50
2018-11-03T22:34:23.761Z,22.90
2018-11-03T22:36:51.804Z,26.97
2018-11-03T22:39:19.763Z,26.00
2018-11-03T22:41:47.762Z,25.23
2018-11-03T22:44:15.769Z,30.70
2018-11-03T22:46:44.841Z,28.63
2018-11-03T22:49:12.848Z,31.97
2018-11-03T22:51:50.403Z,28.27
2018-11-03T22:56:58.354Z,26.87
2018-11-03T22:59:26.335Z,29.00
2018-11-03T23:01:54.558Z,28.43
2018-11-03T23:04:25.717Z,27.53
2018-11-03T23:06:53.949Z,29.63
2018-11-03T23:09:22.078Z,29.17
2018-11-03T23:11:50.079Z,26.83
2018-11-03T23:14:18.498Z,25.57
2018-11-03T23:16:46.546Z,24.47
2018-11-03T23:19:15.410Z,25.33
2018-11-03T23:21:43.355Z,26.13
2018-11-03T23:24:11.383Z,24.30
2018-11-03T23:26:39.403Z,23.57
2018-11-03T23:29:07.353Z,23.93
2018-11-03T23:31:35.317Z,26.37
2018-11-03T23:34:03.556Z,22.47
2018-11-03T23:36:31.559Z,26.60
2018-11-03T23:39:00.303Z,26.43
2018-11-03T23:41:28.328Z,28.30
2018-11-03T23:43:56.278Z,27.27
2018-11-03T23:46:24.267Z,26.60
2018-11-03T23:48:52.246Z,36.53
2018-11-03T23:51:20.762Z,35.77
2018-11-03T23:53:48.742Z,34.97
2018-11-03T23:56:16.745Z,35.00
2018-11-03T23:58:44.710Z,30.30
